createdAt,value
2023-05-21T13:41:28.217Z,6.45
2023-05-21T13:43:54.931Z,6.05
2023-05-21T13:46:21.731Z,5.60
2023-05-21T13:48:48.391Z,6.50
2023-05-21T13:51:25.506Z,5.90
2023-05-21T13:54:01.960Z,5.97
2023-05-21T13:56:28.926Z,5.40
2023-05-21T13:58:56.010Z,5.95
2023-05-21T14:01:22.852Z,5.35
2023-05-21T14:03:49.724Z,5.43
2023-05-21T14:06:16.550Z,5.55
2023-05-21T14:08:43.294Z,5.75
2023-05-21T14:11:10.181Z,6.30
2023-05-21T14:13:38.312Z,5.97
2023-05-21T14:16:05.189Z,5.85
2023-05-21T14:18:31.958Z,5.93
2023-05-21T14:20:58.650Z,5.70
2023-05-21T14:23:25.580Z,5.60
2023-05-21T14:25:52.388Z,5.97
2023-05-21T14:28:19.132Z,5.32
2023-05-21T14:30:45.925Z,6.45
2023-05-21T14:33:13.603Z,7.10
2023-05-21T14:35:41.712Z,4.93
2023-05-21T14:38:08.656Z,6.05
2023-05-21T14:40:35.532Z,5.72
2023-05-21T14:43:02.462Z,5.60
2023-05-21T14:45:29.206Z,5.45
2023-05-21T14:47:55.872Z,5.70
2023-05-21T14:50:22.884Z,5.55
2023-05-21T14:52:49.613Z,5.18
2023-05-21T14:55:18.624Z,5.28
2023-05-21T14:57:45.463Z,5.60
2023-05-21T15:00:12.774Z,5.90
2023-05-21T15:02:40.635Z,5.90
2023-05-21T15:05:07.651Z,5.65
2023-05-21T15:07:36.088Z,5.50
2023-05-21T15:10:02.835Z,6.13
2023-05-21T15:12:29.806Z,5.85
2023-05-21T15:14:56.576Z,5.68
2023-05-21T15:17:23.403Z,5.75
2023-05-21T15:19:50.256Z,5.30
2023-05-21T15:22:17.055Z,5.78
2023-05-21T15:24:45.123Z,5.38
2023-05-21T15:27:11.993Z,5.90
2023-05-21T15:49:17.036Z,5.15
2023-05-21T15:51:44.595Z,5.53
2023-05-21T15:54:11.449Z,5.85
2023-05-21T15:56:38.356Z,5.25
2023-05-21T15:59:05.133Z,5.38
2023-05-21T16:01:31.956Z,5.93
2023-05-21T16:03:58.870Z,5.90
2023-05-21T16:06:26.015Z,5.45
2023-05-21T16:08:53.069Z,5.53
2023-05-21T16:11:19.935Z,5.82
2023-05-21T16:13:46.748Z,5.82
2023-05-21T16:16:13.744Z,5.90
2023-05-21T16:18:40.676Z,5.63
2023-05-21T16:21:07.728Z,5.72
2023-05-21T16:23:34.490Z,6.07
2023-05-21T16:26:01.277Z,10.20
2023-05-21T16:28:29.901Z,10.23
2023-05-21T16:30:56.773Z,6.22
2023-05-21T16:33:23.816Z,5.93
2023-05-21T18:31:02.814Z,6.57
2023-05-21T18:33:29.638Z,5.90
2023-05-21T18:35:56.588Z,6.50
2023-05-21T18:38:23.576Z,5.80
2023-05-21T18:40:50.672Z,6.30
2023-05-21T18:43:18.062Z,6.25
2023-05-21T18:45:47.954Z,5.90
2023-05-21T18:48:14.698Z,5.53
2023-05-21T18:50:41.450Z,4.63
2023-05-21T18:53:08.067Z,4.63
2023-05-21T18:55:34.997Z,22.52
2023-05-21T18:58:01.796Z,20.00
2023-05-21T19:00:28.611Z,11.95
2023-05-21T19:02:56.018Z,6.95
2023-05-21T19:05:22.788Z,5.78
2023-05-21T19:07:49.502Z,5.72
2023-05-21T19:10:16.442Z,5.75
2023-05-21T19:12:43.811Z,5.80
2023-05-21T19:15:13.383Z,6.53
2023-05-21T19:17:40.190Z,5.78
2023-05-21T19:20:07.963Z,6.60
2023-05-21T19:22:35.102Z,5.97
2023-05-21T19:25:02.418Z,7.28
2023-05-21T19:27:32.000Z,6.13
2023-05-21T19:29:58.613Z,6.45
2023-05-21T19:32:25.585Z,6.57
2023-05-21T19:34:52.635Z,6.28
2023-05-21T19:37:19.397Z,6.88
2023-05-21T19:39:49.890Z,6.80
2023-05-21T19:42:17.360Z,7.05
2023-05-21T19:44:44.111Z,6.38
2023-05-21T19:47:10.825Z,6.93
2023-05-21T19:49:37.511Z,9.07
2023-05-21T19:52:04.704Z,7.43
2023-05-21T19:54:31.400Z,7.18
2023-05-21T19:56:58.147Z,7.15
2023-05-21T19:59:25.084Z,6.53
2023-05-21T20:01:51.831Z,7.00
2023-05-21T20:04:18.675Z,6.47
2023-05-21T20:06:45.737Z,6.82
2023-05-21T20:09:13.730Z,7.20
2023-05-21T20:11:42.438Z,7.30
2023-05-21T20:14:09.366Z,6.80
2023-05-21T20:16:36.853Z,7.60
2023-05-21T20:19:04.153Z,7.72
2023-05-21T20:21:32.126Z,6.53
2023-05-21T20:23:58.961Z,8.07
2023-05-21T20:26:26.518Z,7.78
2023-05-21T20:28:53.370Z,7.13
2023-05-21T20:31:20.665Z,7.45
2023-05-21T20:33:50.686Z,9.43
2023-05-21T20:36:17.908Z,14.68
2023-05-21T20:38:45.714Z,10.90
2023-05-21T20:41:12.766Z,11.73
2023-05-21T20:43:39.605Z,9.73
2023-05-21T20:46:06.456Z,8.18
2023-05-21T20:48:33.299Z,8.50
2023-05-21T20:51:04.805Z,8.48
2023-05-21T20:53:31.599Z,7.32
2023-05-21T20:55:58.338Z,7.47
2023-05-21T20:58:25.756Z,7.50
2023-05-21T21:00:52.749Z,7.40
2023-05-21T21:03:21.954Z,7.25
2023-05-21T21:05:48.789Z,7.50
2023-05-21T21:08:16.385Z,7.45
2023-05-21T21:10:46.945Z,7.47
2023-05-21T21:13:14.291Z,7.35
2023-05-21T21:15:41.156Z,7.70
2023-05-21T21:18:08.090Z,7.60
2023-05-21T21:20:34.844Z,7.03
2023-05-21T21:23:01.564Z,7.40
2023-05-21T21:25:28.342Z,7.50
2023-05-21T21:27:54.938Z,7.47
2023-05-21T21:30:21.610Z,7.25
2023-05-21T21:32:49.674Z,7.88
2023-05-21T21:35:16.696Z,7.97
2023-05-21T21:37:43.499Z,8.13
2023-05-21T21:40:10.317Z,8.48
2023-05-21T21:42:37.089Z,8.57
2023-05-21T21:45:04.431Z,8.45
2023-05-21T21:47:31.364Z,8.30
2023-05-21T21:49:58.326Z,8.82
2023-05-21T21:52:27.673Z,8.63
2023-05-21T21:54:55.616Z,8.48
2023-05-21T21:57:22.362Z,8.75
2023-05-21T21:59:49.220Z,8.63
2023-05-21T22:02:18.126Z,8.07
2023-05-21T22:04:45.442Z,8.10
2023-05-21T22:07:18.319Z,8.00
2023-05-21T22:09:45.733Z,9.13
2023-05-21T22:12:13.039Z,9.73
2023-05-21T22:14:39.932Z,9.10
2023-05-21T22:17:08.676Z,9.32
2023-05-21T22:19:36.134Z,9.50
2023-05-21T22:22:04.380Z,9.40
2023-05-21T22:24:32.922Z,9.02
2023-05-21T22:27:00.043Z,8.75
2023-05-21T22:29:26.995Z,9.02
2023-05-21T22:31:53.812Z,7.82
2023-05-21T22:34:20.701Z,8.68
2023-05-21T22:36:47.483Z,8.90
2023-05-21T22:39:14.368Z,9.20
2023-05-21T22:41:41.188Z,9.57
2023-05-21T22:44:07.984Z,9.30
2023-05-21T22:46:35.749Z,9.32
2023-05-21T22:49:03.212Z,9.60
2023-05-21T22:51:34.701Z,8.75
2023-05-21T22:54:02.089Z,8.57
2023-05-21T22:56:28.869Z,9.18
2023-05-21T22:58:55.998Z,8.95
2023-05-21T23:01:22.874Z,8.98
2023-05-21T23:03:51.187Z,9.13
2023-05-21T23:06:17.864Z,8.57
2023-05-21T23:08:44.910Z,8.77
2023-05-21T23:11:11.761Z,8.90
2023-05-21T23:13:38.486Z,8.80
2023-05-21T23:16:06.114Z,7.88
2023-05-21T23:18:33.141Z,8.65
2023-05-21T23:20:59.982Z,9.02
2023-05-21T23:23:26.740Z,9.40
2023-05-21T23:25:57.733Z,8.32
2023-05-21T23:28:25.109Z,7.97
2023-05-21T23:30:51.980Z,9.02
2023-05-21T23:33:18.783Z,8.65
2023-05-21T23:35:45.450Z,8.70
2023-05-21T23:38:12.129Z,8.52
2023-05-21T23:40:39.074Z,8.43
2023-05-21T23:43:06.014Z,9.40
2023-05-21T23:45:32.781Z,8.65
2023-05-21T23:47:59.510Z,9.05
2023-05-21T23:50:26.376Z,9.05
2023-05-21T23:52:53.102Z,9.70
